sensor_id;sensor_type;location;lat;lon;timestamp;pressure;altitude;pressure_sealevel;temperature;humidity
62712;BME280;48772;55.586;37.730;2023-03-16T00:02:08;98962.31;;;2.95;100.00
62712;BME280;48772;55.586;37.730;2023-03-16T00:04:34;98961.34;;;2.96;100.00
62712;BME280;48772;55.586;37.730;2023-03-16T00:07:08;98928.84;;;2.83;100.00
62712;BME280;48772;55.586;37.730;2023-03-16T00:09:34;98852.09;;;2.47;100.00
62712;BME280;48772;55.586;37.730;2023-03-16T00:12:01;98947.66;;;3.05;100.00
62712;BME280;48772;55.586;37.730;2023-03-16T00:14:31;98930.91;;;3.06;100.00
62712;BME280;48772;55.586;37.730;2023-03-16T00:16:57;98934.03;;;2.99;100.00
62712;BME280;48772;55.586;37.730;2023-03-16T00:19:23;98931.09;;;2.89;100.00
62712;BME280;48772;55.586;37.730;2023-03-16T00:21:50;98934.94;;;2.98;100.00
62712;BME280;48772;55.586;37.730;2023-03-16T00:24:17;98949.13;;;2.95;100.00
62712;BME280;48772;55.586;37.730;2023-03-16T00:26:46;98959.13;;;3.04;100.00
62712;BME280;48772;55.586;37.730;2023-03-16T00:29:12;98925.16;;;2.86;100.00
62712;BME280;48772;55.586;37.730;2023-03-16T00:31:40;98939.38;;;2.97;100.00
62712;BME280;48772;55.586;37.730;2023-03-16T00:34:11;98907.50;;;2.74;100.00
62712;BME280;48772;55.586;37.730;2023-03-16T00:36:37;98940.50;;;2.93;100.00
62712;BME280;48772;55.586;37.730;2023-03-16T00:39:04;98948.31;;;2.95;100.00
62712;BME280;48772;55.586;37.730;2023-03-16T00:41:31;98956.22;;;2.95;100.00
62712;BME280;48772;55.586;37.730;2023-03-16T00:43:56;98934.28;;;2.80;100.00
62712;BME280;48772;55.586;37.730;2023-03-16T00:46:23;98967.41;;;2.98;100.00
62712;BME280;48772;55.586;37.730;2023-03-16T00:48:51;98923.94;;;2.77;100.00
62712;BME280;48772;55.586;37.730;2023-03-16T00:51:17;98951.69;;;2.97;100.00
62712;BME280;48772;55.586;37.730;2023-03-16T00:53:44;98924.97;;;2.75;100.00
62712;BME280;48772;55.586;37.730;2023-03-16T00:56:11;98967.03;;;2.90;100.00
62712;BME280;48772;55.586;37.730;2023-03-16T00:58:40;98950.75;;;2.84;100.00
62712;BME280;48772;55.586;37.730;2023-03-16T01:01:12;98960.91;;;2.90;100.00
62712;BME280;48772;55.586;37.730;2023-03-16T01:03:39;98932.31;;;2.70;100.00
62712;BME280;48772;55.586;37.730;2023-03-16T01:06:09;98959.03;;;2.92;100.00
62712;BME280;48772;55.586;37.730;2023-03-16T01:08:37;98935.97;;;2.81;100.00
62712;BME280;48772;55.586;37.730;2023-03-16T01:11:05;98942.47;;;2.90;100.00
62712;BME280;48772;55.586;37.730;2023-03-16T01:13:32;98956.41;;;2.92;100.00
62712;BME280;48772;55.586;37.730;2023-03-16T01:15:59;98935.03;;;2.82;100.00
62712;BME280;48772;55.586;37.730;2023-03-16T01:18:26;98949.53;;;2.89;100.00
62712;BME280;48772;55.586;37.730;2023-03-16T01:20:51;98941.72;;;2.88;100.00
62712;BME280;48772;55.586;37.730;2023-03-16T01:23:18;98941.50;;;2.91;100.00
62712;BME280;48772;55.586;37.730;2023-03-16T01:25:45;98896.09;;;2.59;100.00
62712;BME280;48772;55.586;37.730;2023-03-16T01:28:20;98923.84;;;2.79;100.00
62712;BME280;48772;55.586;37.730;2023-03-16T01:30:53;98965.13;;;2.92;100.00
62712;BME280;48772;55.586;37.730;2023-03-16T01:33:24;98955.16;;;2.83;100.00
62712;BME280;48772;55.586;37.730;2023-03-16T01:35:55;98955.06;;;2.85;100.00
62712;BME280;48772;55.586;37.730;2023-03-16T01:38:21;98958.75;;;2.82;100.00
62712;BME280;48772;55.586;37.730;2023-03-16T01:40:49;98956.19;;;2.81;100.00
62712;BME280;48772;55.586;37.730;2023-03-16T01:43:17;98963.06;;;2.83;100.00
62712;BME280;48772;55.586;37.730;2023-03-16T01:56:34;98942.84;;;2.84;100.00
62712;BME280;48772;55.586;37.730;2023-03-16T01:59:08;98896.56;;;2.52;100.00
62712;BME280;48772;55.586;37.730;2023-03-16T02:01:34;98943.94;;;2.80;100.00
62712;BME280;48772;55.586;37.730;2023-03-16T02:04:18;98924.19;;;2.59;100.00
62712;BME280;48772;55.586;37.730;2023-03-16T02:06:50;98951.38;;;2.73;100.00
62712;BME280;48772;55.586;37.730;2023-03-16T02:09:19;98967.00;;;2.76;100.00
62712;BME280;48772;55.586;37.730;2023-03-16T02:11:47;98946.28;;;2.70;100.00
62712;BME280;48772;55.586;37.730;2023-03-16T02:14:13;98911.75;;;2.47;100.00
62712;BME280;48772;55.586;37.730;2023-03-16T02:16:41;98955.69;;;2.74;100.00
62712;BME280;48772;55.586;37.730;2023-03-16T02:19:11;98909.63;;;2.53;100.00
62712;BME280;48772;55.586;37.730;2023-03-16T02:22:00;98932.94;;;2.73;100.00
62712;BME280;48772;55.586;37.730;2023-03-16T02:24:27;98923.38;;;2.72;100.00
62712;BME280;48772;55.586;37.730;2023-03-16T02:27:13;98831.88;;;2.20;100.00
62712;BME280;48772;55.586;37.730;2023-03-16T02:32:38;98941.13;;;2.83;100.00
62712;BME280;48772;55.586;37.730;2023-03-16T02:35:05;98951.56;;;2.84;100.00
62712;BME280;48772;55.586;37.730;2023-03-16T02:37:32;98927.31;;;2.79;100.00
62712;BME280;48772;55.586;37.730;2023-03-16T02:40:00;98926.47;;;2.79;100.00
62712;BME280;48772;55.586;37.730;2023-03-16T02:42:28;98917.84;;;2.77;100.00
62712;BME280;48772;55.586;37.730;2023-03-16T02:44:59;98912.56;;;2.77;100.00
62712;BME280;48772;55.586;37.730;2023-03-16T02:47:34;98919.03;;;2.85;100.00
62712;BME280;48772;55.586;37.730;2023-03-16T02:50:02;98859.03;;;2.48;100.00
62712;BME280;48772;55.586;37.730;2023-03-16T02:52:36;98920.00;;;2.84;100.00
62712;BME280;48772;55.586;37.730;2023-03-16T02:55:05;98927.06;;;2.84;100.00
62712;BME280;48772;55.586;37.730;2023-03-16T02:57:32;98928.84;;;2.83;100.00
62712;BME280;48772;55.586;37.730;2023-03-16T03:00:03;98928.84;;;2.83;100.00
62712;BME280;48772;55.586;37.730;2023-03-16T03:02:45;98916.97;;;2.76;100.00
62712;BME280;48772;55.586;37.730;2023-03-16T03:05:12;98923.19;;;2.75;100.00
62712;BME280;48772;55.586;37.730;2023-03-16T03:07:38;98924.09;;;2.74;100.00
62712;BME280;48772;55.586;37.730;2023-03-16T03:10:06;98889.03;;;2.60;100.00
62712;BME280;48772;55.586;37.730;2023-03-16T03:12:33;98925.34;;;2.83;100.00
62712;BME280;48772;55.586;37.730;2023-03-16T03:14:59;98919.34;;;2.81;100.00
62712;BME280;48772;55.586;37.730;2023-03-16T03:17:28;98896.28;;;2.70;100.00
62712;BME280;48772;55.586;37.730;2023-03-16T03:19:56;98915.66;;;2.83;100.00
62712;BME280;48772;55.586;37.730;2023-03-16T03:22:23;98921.88;;;2.82;100.00
62712;BME280;48772;55.586;37.730;2023-03-16T03:24:51;98896.19;;;2.72;100.00
62712;BME280;48772;55.586;37.730;2023-03-16T03:27:17;98872.91;;;2.66;100.00
62712;BME280;48772;55.586;37.730;2023-03-16T03:29:43;98894.41;;;2.72;100.00
62712;BME280;48772;55.586;37.730;2023-03-16T03:32:09;98904.38;;;2.81;100.00
62712;BME280;48772;55.586;37.730;2023-03-16T03:34:35;98883.88;;;2.72;100.00
62712;BME280;48772;55.586;37.730;2023-03-16T03:37:01;98890.19;;;2.70;100.00
62712;BME280;48772;55.586;37.730;2023-03-16T03:39:27;98899.69;;;2.72;100.00
62712;BME280;48772;55.586;37.730;2023-03-16T03:41:53;98902.78;;;2.79;100.00
62712;BME280;48772;55.586;37.730;2023-03-16T03:44:21;98911.25;;;2.70;100.00
62712;BME280;48772;55.586;37.730;2023-03-16T03:46:47;98855.31;;;2.38;100.00
62712;BME280;48772;55.586;37.730;2023-03-16T03:49:14;98915.28;;;2.61;100.00
62712;BME280;48772;55.586;37.730;2023-03-16T03:51:42;98909.34;;;2.58;100.00
62712;BME280;48772;55.586;37.730;2023-03-16T03:54:14;98915.00;;;2.66;100.00
62712;BME280;48772;55.586;37.730;2023-03-16T03:56:50;98886.31;;;2.47;100.00
62712;BME280;48772;55.586;37.730;2023-03-16T03:59:16;98904.53;;;2.50;100.00
62712;BME280;48772;55.586;37.730;2023-03-16T04:02:02;98922.78;;;2.53;100.00
62712;BME280;48772;55.586;37.730;2023-03-16T04:04:43;98915.41;;;2.44;100.00
62712;BME280;48772;55.586;37.730;2023-03-16T04:07:11;98927.09;;;2.54;100.00
62712;BME280;48772;55.586;37.730;2023-03-16T04:09:37;98916.75;;;2.51;100.00
62712;BME280;48772;55.586;37.730;2023-03-16T04:12:05;98778.81;;;1.70;100.00
62712;BME280;48772;55.586;37.730;2023-03-16T04:14:31;98904.84;;;2.30;100.00
62712;BME280;48772;55.586;37.730;2023-03-16T04:16:59;98883.81;;;2.30;100.00
62712;BME280;48772;55.586;37.730;2023-03-16T04:19:25;98902.44;;;2.41;100.00
62712;BME280;48772;55.586;37.730;2023-03-16T04:21:53;98919.00;;;2.43;100.00
62712;BME280;48772;55.586;37.730;2023-03-16T04:24:19;98898.22;;;2.39;100.00
62712;BME280;48772;55.586;37.730;2023-03-16T04:26:47;98884.59;;;2.32;100.00
62712;BME280;48772;55.586;37.730;2023-03-16T04:29:13;98907.34;;;2.47;100.00
62712;BME280;48772;55.586;37.730;2023-03-16T04:31:43;98863.25;;;2.23;100.00
62712;BME280;48772;55.586;37.730;2023-03-16T04:34:09;98896.34;;;2.41;100.00
62712;BME280;48772;55.586;37.730;2023-03-16T04:36:37;98911.00;;;2.45;100.00
62712;BME280;48772;55.586;37.730;2023-03-16T04:39:05;98892.66;;;2.29;100.00
62712;BME280;48772;55.586;37.730;2023-03-16T04:41:31;98912.56;;;2.33;100.00
62712;BME280;48772;55.586;37.730;2023-03-16T04:44:20;98927.84;;;2.42;100.00
62712;BME280;48772;55.586;37.730;2023-03-16T04:46:47;98892.63;;;2.15;100.00
62712;BME280;48772;55.586;37.730;2023-03-16T04:49:13;98940.00;;;2.29;100.00
62712;BME280;48772;55.586;37.730;2023-03-16T04:51:42;98954.41;;;2.38;100.00
62712;BME280;48772;55.586;37.730;2023-03-16T04:54:11;98954.50;;;2.36;100.00
62712;BME280;48772;55.586;37.730;2023-03-16T04:56:40;98884.28;;;1.93;100.00
62712;BME280;48772;55.586;37.730;2023-03-16T04:59:12;98939.34;;;2.26;100.00
62712;BME280;48772;55.586;37.730;2023-03-16T05:01:46;98963.50;;;2.32;100.00
62712;BME280;48772;55.586;37.730;2023-03-16T05:04:14;98924.16;;;2.15;100.00
62712;BME280;48772;55.586;37.730;2023-03-16T05:06:41;98965.09;;;2.35;100.00
62712;BME280;48772;55.586;37.730;2023-03-16T05:09:07;98918.59;;;2.06;100.00
62712;BME280;48772;55.586;37.730;2023-03-16T05:11:36;98933.16;;;2.11;100.00
62712;BME280;48772;55.586;37.730;2023-03-16T05:14:05;98929.28;;;2.03;100.00
62712;BME280;48772;55.586;37.730;2023-03-16T05:16:37;98947.84;;;2.15;100.00
62712;BME280;48772;55.586;37.730;2023-03-16T05:19:03;98950.28;;;2.18;100.00
62712;BME280;48772;55.586;37.730;2023-03-16T05:21:32;98952.44;;;2.12;100.00
62712;BME280;48772;55.586;37.730;2023-03-16T05:24:06;98962.16;;;2.25;100.00
62712;BME280;48772;55.586;37.730;2023-03-16T05:26:33;98956.25;;;2.22;100.00
62712;BME280;48772;55.586;37.730;2023-03-16T05:28:59;98937.16;;;2.18;100.00
62712;BME280;48772;55.586;37.730;2023-03-16T05:31:28;98956.94;;;2.39;100.00
62712;BME280;48772;55.586;37.730;2023-03-16T05:33:58;98942.44;;;2.32;100.00
62712;BME280;48772;55.586;37.730;2023-03-16T05:36:24;98960.06;;;2.46;100.00
62712;BME280;48772;55.586;37.730;2023-03-16T05:38:55;98939.34;;;2.40;100.00
62712;BME280;48772;55.586;37.730;2023-03-16T05:41:42;98933.56;;;2.49;100.00
62712;BME280;48772;55.586;37.730;2023-03-16T05:44:15;98949.00;;;2.55;100.00
62712;BME280;48772;55.586;37.730;2023-03-16T05:47:13;98956.34;;;2.64;100.00
62712;BME280;48772;55.586;37.730;2023-03-16T05:49:43;98910.16;;;2.44;100.00
62712;BME280;48772;55.586;37.730;2023-03-16T05:52:18;98956.25;;;2.65;100.00
62712;BME280;48772;55.586;37.730;2023-03-16T05:54:44;98917.69;;;2.50;100.00
62712;BME280;48772;55.586;37.730;2023-03-16T05:57:10;98963.03;;;2.69;100.00
62712;BME280;48772;55.586;37.730;2023-03-16T05:59:37;98879.75;;;2.11;100.00
62712;BME280;48772;55.586;37.730;2023-03-16T06:02:03;98951.22;;;2.47;100.00
62712;BME280;48772;55.586;37.730;2023-03-16T06:04:29;98943.41;;;2.45;100.00
62712;BME280;48772;55.586;37.730;2023-03-16T06:06:56;98962.44;;;2.50;100.00
62712;BME280;48772;55.586;37.730;2023-03-16T06:09:25;98953.59;;;2.51;100.00
62712;BME280;48772;55.586;37.730;2023-03-16T06:11:53;98977.47;;;2.62;100.00
62712;BME280;48772;55.586;37.730;2023-03-16T06:14:19;98987.94;;;2.64;100.00
62712;BME280;48772;55.586;37.730;2023-03-16T06:16:46;98993.09;;;2.65;100.00
62712;BME280;48772;55.586;37.730;2023-03-16T06:19:13;98934.97;;;2.40;100.00
62712;BME280;48772;55.586;37.730;2023-03-16T06:21:42;98987.66;;;2.68;100.00
62712;BME280;48772;55.586;37.730;2023-03-16T06:24:10;98981.63;;;2.66;100.00
62712;BME280;48772;55.586;37.730;2023-03-16T06:26:36;98938.06;;;2.33;100.00
62712;BME280;48772;55.586;37.730;2023-03-16T06:29:04;98981.41;;;2.55;100.00
62712;BME280;48772;55.586;37.730;2023-03-16T06:31:32;98963.63;;;2.45;100.00
62712;BME280;48772;55.586;37.730;2023-03-16T06:34:00;99007.56;;;2.58;100.00
62712;BME280;48772;55.586;37.730;2023-03-16T06:36:27;98977.03;;;2.40;100.00
62712;BME280;48772;55.586;37.730;2023-03-16T06:38:56;99011.38;;;2.53;100.00
62712;BME280;48772;55.586;37.730;2023-03-16T06:41:42;98993.50;;;2.44;100.00
62712;BME280;48772;55.586;37.730;2023-03-16T06:44:10;98991.63;;;2.46;100.00
62712;BME280;48772;55.586;37.730;2023-03-16T06:46:41;99010.97;;;2.60;100.00
62712;BME280;48772;55.586;37.730;2023-03-16T06:49:07;98989.91;;;2.60;100.00
62712;BME280;48772;55.586;37.730;2023-03-16T06:51:33;98995.47;;;2.70;100.00
62712;BME280;48772;55.586;37.730;2023-03-16T06:53:59;98977.97;;;2.69;100.00
62712;BME280;48772;55.586;37.730;2023-03-16T06:56:25;98978.47;;;2.75;100.00
62712;BME280;48772;55.586;37.730;2023-03-16T06:58:52;98972.81;;;2.81;100.00
62712;BME280;48772;55.586;37.730;2023-03-16T07:01:18;98965.00;;;2.80;100.00
62712;BME280;48772;55.586;37.730;2023-03-16T07:03:44;98982.34;;;2.98;100.00
62712;BME280;48772;55.586;37.730;2023-03-16T07:06:21;98961.34;;;2.96;100.00
62712;BME280;48772;55.586;37.730;2023-03-16T07:08:47;98954.22;;;2.98;100.00
62712;BME280;48772;55.586;37.730;2023-03-16T07:11:13;98951.97;;;3.06;100.00
62712;BME280;48772;55.586;37.730;2023-03-16T07:13:40;98956.47;;;3.18;100.00
62712;BME280;48772;55.586;37.730;2023-03-16T07:16:07;98965.31;;;3.31;100.00
62712;BME280;48772;55.586;37.730;2023-03-16T07:18:32;98974.91;;;3.46;100.00
62712;BME280;48772;55.586;37.730;2023-03-16T07:20:59;98915.38;;;3.16;100.00
62712;BME280;48772;55.586;37.730;2023-03-16T07:23:25;98977.19;;;3.53;100.00
62712;BME280;48772;55.586;37.730;2023-03-16T07:25:56;98893.84;;;2.95;100.00
62712;BME280;48772;55.586;37.730;2023-03-16T07:28:22;98954.59;;;3.34;100.00
62712;BME280;48772;55.586;37.730;2023-03-16T07:30:49;98970.41;;;3.48;100.00
62712;BME280;48772;55.586;37.730;2023-03-16T07:33:16;98967.47;;;3.53;100.00
62712;BME280;48772;55.586;37.730;2023-03-16T07:35:43;98972.44;;;3.58;100.00
62712;BME280;48772;55.586;37.730;2023-03-16T07:38:09;98954.97;;;3.42;100.00
62712;BME280;48772;55.586;37.730;2023-03-16T07:40:39;98971.50;;;3.58;100.00
62712;BME280;48772;55.586;37.730;2023-03-16T07:43:11;98983.69;;;3.47;100.00
62712;BME280;48772;55.586;37.730;2023-03-16T07:45:49;98969.75;;;3.31;100.00
62712;BME280;48772;55.586;37.730;2023-03-16T07:48:18;98942.56;;;3.16;100.00
62712;BME280;48772;55.586;37.730;2023-03-16T07:50:57;98953.00;;;3.32;100.00
62712;BME280;48772;55.586;37.730;2023-03-16T07:53:23;98973.13;;;3.47;100.00
62712;BME280;48772;55.586;37.730;2023-03-16T07:55:58;98968.69;;;3.47;100.00
62712;BME280;48772;55.586;37.730;2023-03-16T07:58:23;98919.91;;;3.28;100.00
62712;BME280;48772;55.586;37.730;2023-03-16T08:00:49;98939.41;;;3.66;100.00
62712;BME280;48772;55.586;37.730;2023-03-16T08:03:15;98957.13;;;3.91;100.00
62712;BME280;48772;55.586;37.730;2023-03-16T08:05:43;98950.16;;;3.90;100.00
62712;BME280;48772;55.586;37.730;2023-03-16T08:08:13;98945.63;;;3.92;100.00
62712;BME280;48772;55.586;37.730;2023-03-16T08:10:40;98897.38;;;3.77;100.00
62712;BME280;48772;55.586;37.730;2023-03-16T08:13:11;98946.91;;;3.99;100.00
62712;BME280;48772;55.586;37.730;2023-03-16T08:15:40;98963.31;;;4.04;100.00
62712;BME280;48772;55.586;37.730;2023-03-16T08:18:13;98952.19;;;3.99;100.00
62712;BME280;48772;55.586;37.730;2023-03-16T08:20:39;98919.78;;;3.84;100.00
62712;BME280;48772;55.586;37.730;2023-03-16T08:23:07;98954.63;;;4.02;100.00
62712;BME280;48772;55.586;37.730;2023-03-16T08:25:37;98959.47;;;3.95;100.00
62712;BME280;48772;55.586;37.730;2023-03-16T08:28:09;98957.97;;;3.91;100.00
62712;BME280;48772;55.586;37.730;2023-03-16T08:30:42;98952.53;;;3.94;100.00
62712;BME280;48772;55.586;37.730;2023-03-16T08:33:21;98938.31;;;3.83;100.00
62712;BME280;48772;55.586;37.730;2023-03-16T08:35:47;98955.25;;;3.93;100.00
62712;BME280;48772;55.586;37.730;2023-03-16T08:38:13;98954.91;;;3.85;100.00
62712;BME280;48772;55.586;37.730;2023-03-16T08:40:41;98980.88;;;3.91;100.00
62712;BME280;48772;55.586;37.730;2023-03-16T08:43:16;98970.81;;;3.83;100.00
62712;BME280;48772;55.586;37.730;2023-03-16T08:45:47;98973.72;;;3.93;100.00
62712;BME280;48772;55.586;37.730;2023-03-16T08:48:15;98979.91;;;3.92;100.00
62712;BME280;48772;55.586;37.730;2023-03-16T08:50:45;98965.53;;;3.83;100.00
62712;BME280;48772;55.586;37.730;2023-03-16T08:53:12;98934.31;;;3.63;100.00
62712;BME280;48772;55.586;37.730;2023-03-16T08:55:39;98975.59;;;3.91;100.00
62712;BME280;48772;55.586;37.730;2023-03-16T08:58:09;98971.84;;;3.81;100.00
62712;BME280;48772;55.586;37.730;2023-03-16T09:00:36;98920.25;;;3.50;100.00
62712;BME280;48772;55.586;37.730;2023-03-16T09:03:04;98978.63;;;3.85;100.00
62712;BME280;48772;55.586;37.730;2023-03-16T09:05:30;98960.84;;;3.74;100.00
62712;BME280;48772;55.586;37.730;2023-03-16T09:07:57;98980.88;;;3.91;100.00
62712;BME280;48772;55.586;37.730;2023-03-16T09:10:25;98984.34;;;3.91;100.00
62712;BME280;48772;55.586;37.730;2023-03-16T09:12:52;98977.66;;;4.00;100.00
62712;BME280;48772;55.586;37.730;2023-03-16T09:15:19;98974.91;;;4.01;100.00
62712;BME280;48772;55.586;37.730;2023-03-16T09:17:46;98938.31;;;3.83;100.00
62712;BME280;48772;55.586;37.730;2023-03-16T09:20:14;98975.34;;;4.08;100.00
62712;BME280;48772;55.586;37.730;2023-03-16T09:22:41;98957.56;;;3.97;100.00
62712;BME280;48772;55.586;37.730;2023-03-16T09:25:08;98981.75;;;4.18;100.00
62712;BME280;48772;55.586;37.730;2023-03-16T09:27:36;98956.13;;;4.06;100.00
62712;BME280;48772;55.586;37.730;2023-03-16T09:30:04;98964.84;;;4.20;100.00
62712;BME280;48772;55.586;37.730;2023-03-16T09:32:30;98977.13;;;4.34;100.00
62712;BME280;48772;55.586;37.730;2023-03-16T09:34:58;98977.78;;;4.37;100.00
62712;BME280;48772;55.586;37.730;2023-03-16T09:37:24;98976.84;;;4.38;100.00
62712;BME280;48772;55.586;37.730;2023-03-16T09:39:51;98943.00;;;4.18;100.00
62712;BME280;48772;55.586;37.730;2023-03-16T09:42:34;98969.47;;;4.43;100.00
62712;BME280;48772;55.586;37.730;2023-03-16T09:45:15;98949.25;;;4.30;100.00
62712;BME280;48772;55.586;37.730;2023-03-16T09:47:45;98955.41;;;4.43;100.00
62712;BME280;48772;55.586;37.730;2023-03-16T09:50:28;98953.72;;;4.42;100.00
62712;BME280;48772;55.586;37.730;2023-03-16T09:53:03;98965.47;;;4.50;100.00
62712;BME280;48772;55.586;37.730;2023-03-16T09:55:35;98964.94;;;4.58;100.00
62712;BME280;48772;55.586;37.730;2023-03-16T09:58:05;98963.47;;;4.66;100.00
62712;BME280;48772;55.586;37.730;2023-03-16T10:00:40;98938.44;;;4.59;100.00
62712;BME280;48772;55.586;37.730;2023-03-16T10:05:59;98963.09;;;4.85;100.00
62712;BME280;48772;55.586;37.730;2023-03-16T10:08:48;98945.31;;;4.74;100.00
62712;BME280;48772;55.586;37.730;2023-03-16T10:14:11;98966.81;;;4.95;100.00
62712;BME280;48772;55.586;37.730;2023-03-16T10:17:25;98963.41;;;4.93;100.00
62712;BME280;48772;55.586;37.730;2023-03-16T10:20:00;98940.03;;;4.87;100.00
62712;BME280;48772;55.586;37.730;2023-03-16T10:22:31;98968.91;;;5.02;100.00
62712;BME280;48772;55.586;37.730;2023-03-16T10:27:49;98962.47;;;5.19;100.00
62712;BME280;48772;55.586;37.730;2023-03-16T10:30:25;98966.47;;;5.12;100.00
62712;BME280;48772;55.586;37.730;2023-03-16T10:32:53;98918.41;;;4.82;100.00
62712;BME280;48772;55.586;37.730;2023-03-16T10:36:11;98952.94;;;4.91;100.00
62712;BME280;48772;55.586;37.730;2023-03-16T10:38:59;98971.84;;;4.98;100.00
62712;BME280;48772;55.586;37.730;2023-03-16T10:41:28;98971.44;;;4.91;100.00
62712;BME280;48772;55.586;37.730;2023-03-16T10:44:24;98981.50;;;4.99;100.00
62712;BME280;48772;55.586;37.730;2023-03-16T10:47:03;98978.09;;;4.97;100.00
62712;BME280;48772;55.586;37.730;2023-03-16T10:49:43;98966.06;;;4.93;100.00
62712;BME280;48772;55.586;37.730;2023-03-16T10:54:50;98986.31;;;4.92;100.00
62712;BME280;48772;55.586;37.730;2023-03-16T10:57:22;98977.69;;;4.90;100.00
62712;BME280;48772;55.586;37.730;2023-03-16T10:59:53;98976.13;;;5.00;100.00
62712;BME280;48772;55.586;37.730;2023-03-16T11:02:24;98979.59;;;5.13;100.00
62712;BME280;48772;55.586;37.730;2023-03-16T11:04:56;98947.03;;;4.88;100.00
62712;BME280;48772;55.586;37.730;2023-03-16T11:07:23;98963.94;;;4.98;100.00
62712;BME280;48772;55.586;37.730;2023-03-16T11:09:54;98968.78;;;4.91;100.00
62712;BME280;48772;55.586;37.730;2023-03-16T11:12:24;98921.00;;;4.57;100.00
62712;BME280;48772;55.586;37.730;2023-03-16T11:14:50;98957.28;;;4.67;100.00
62712;BME280;48772;55.586;37.730;2023-03-16T11:17:36;98984.00;;;4.75;100.00
62712;BME280;48772;55.586;37.730;2023-03-16T11:20:05;98986.19;;;4.69;100.00
62712;BME280;48772;55.586;37.730;2023-03-16T11:22:40;98960.91;;;4.52;100.00
62712;BME280;48772;55.586;37.730;2023-03-16T11:25:13;98959.44;;;4.61;100.00
62712;BME280;48772;55.586;37.730;2023-03-16T11:27:51;98977.75;;;4.64;100.00
62712;BME280;48772;55.586;37.730;2023-03-16T11:32:53;98935.94;;;4.19;100.00
62712;BME280;48772;55.586;37.730;2023-03-16T11:52:07;98995.72;;;4.32;100.00
62712;BME280;48772;55.586;37.730;2023-03-16T12:11:09;98983.84;;;3.99;100.00
62712;BME280;48772;55.586;37.730;2023-03-16T12:16:28;99030.50;;;4.25;100.00
62712;BME280;48772;55.586;37.730;2023-03-16T12:19:02;99019.41;;;4.20;100.00
62712;BME280;48772;55.586;37.730;2023-03-16T12:21:35;99012.16;;;4.23;100.00
62712;BME280;48772;55.586;37.730;2023-03-16T12:24:05;99007.69;;;4.24;100.00
62712;BME280;48772;55.586;37.730;2023-03-16T12:26:39;98995.31;;;4.12;100.00
62712;BME280;48772;55.586;37.730;2023-03-16T12:32:01;99014.66;;;4.25;100.00
62712;BME280;48772;55.586;37.730;2023-03-16T12:34:51;99025.03;;;4.28;100.00
62712;BME280;48772;55.586;37.730;2023-03-16T12:37:43;99028.22;;;4.33;100.00
62712;BME280;48772;55.586;37.730;2023-03-16T12:40:37;99028.44;;;4.30;100.00
62712;BME280;48772;55.586;37.730;2023-03-16T12:45:57;99030.31;;;4.28;100.00
62712;BME280;48772;55.586;37.730;2023-03-16T12:48:31;99030.25;;;4.15;100.00
62712;BME280;48772;55.586;37.730;2023-03-16T12:51:00;99020.19;;;4.08;100.00
62712;BME280;48772;55.586;37.730;2023-03-16T12:53:41;99033.19;;;4.11;100.00
62712;BME280;48772;55.586;37.730;2023-03-16T12:56:12;98980.34;;;3.72;100.00
62712;BME280;48772;55.586;37.730;2023-03-16T12:58:44;99012.50;;;3.91;100.00
62712;BME280;48772;55.586;37.730;2023-03-16T13:01:13;98961.63;;;3.62;100.00
62712;BME280;48772;55.586;37.730;2023-03-16T13:03:41;98928.25;;;3.34;100.00
62712;BME280;48772;55.586;37.730;2023-03-16T13:06:22;99001.41;;;3.86;100.00
62712;BME280;48772;55.586;37.730;2023-03-16T13:08:54;99024.28;;;3.99;100.00
62712;BME280;48772;55.586;37.730;2023-03-16T13:11:24;99030.09;;;4.04;100.00
62712;BME280;48772;55.586;37.730;2023-03-16T13:16:30;98996.63;;;3.78;100.00
62712;BME280;48772;55.586;37.730;2023-03-16T13:18:56;99009.31;;;3.86;100.00
62712;BME280;48772;55.586;37.730;2023-03-16T13:21:37;99025.31;;;3.97;100.00
62712;BME280;48772;55.586;37.730;2023-03-16T13:26:46;99018.06;;;3.86;100.00
62712;BME280;48772;55.586;37.730;2023-03-16T13:29:25;99008.22;;;3.76;100.00
62712;BME280;48772;55.586;37.730;2023-03-16T13:31:53;99033.69;;;3.89;100.00
62712;BME280;48772;55.586;37.730;2023-03-16T13:34:22;99003.22;;;3.71;100.00
62712;BME280;48772;55.586;37.730;2023-03-16T13:36:53;99028.59;;;3.86;100.00
62712;BME280;48772;55.586;37.730;2023-03-16T13:39:23;99019.28;;;3.81;100.00
62712;BME280;48772;55.586;37.730;2023-03-16T13:42:18;98993.16;;;3.64;100.00
62712;BME280;48772;55.586;37.730;2023-03-16T13:44:45;99027.59;;;3.89;100.00
62712;BME280;48772;55.586;37.730;2023-03-16T13:47:13;99023.56;;;3.83;100.00
62712;BME280;48772;55.586;37.730;2023-03-16T13:49:49;98987.81;;;3.65;100.00
62712;BME280;48772;55.586;37.730;2023-03-16T13:54:49;99035.50;;;3.89;100.00
62712;BME280;48772;55.586;37.730;2023-03-16T13:57:20;99012.06;;;3.70;100.00
62712;BME280;48772;55.586;37.730;2023-03-16T13:59:49;99017.78;;;3.77;100.00
62712;BME280;48772;55.586;37.730;2023-03-16T14:02:17;99032.88;;;3.89;100.00
62712;BME280;48772;55.586;37.730;2023-03-16T14:04:44;99019.09;;;3.84;100.00
62712;BME280;48772;55.586;37.730;2023-03-16T14:07:18;99012.53;;;3.77;100.00
62712;BME280;48772;55.586;37.730;2023-03-16T14:09:45;99016.56;;;3.82;100.00
62712;BME280;48772;55.586;37.730;2023-03-16T14:12:13;98986.94;;;3.65;100.00
62712;BME280;48772;55.586;37.730;2023-03-16T14:14:41;99031.91;;;3.90;100.00
62712;BME280;48772;55.586;37.730;2023-03-16T14:17:11;99027.50;;;3.90;100.00
62712;BME280;48772;55.586;37.730;2023-03-16T14:19:48;99032.97;;;3.87;100.00
62712;BME280;48772;55.586;37.730;2023-03-16T14:22:18;99029.66;;;3.84;100.00
62712;BME280;48772;55.586;37.730;2023-03-16T14:24:51;99034.28;;;3.80;100.00